Time;durP1;ratioP1;P1;durP2;ratioP2;P2;SDS_P1;SDS_P2;PMS_P1;PMS_P2;Temp;Humidity;BMP_temperature;BMP_pressure;BME280_temperature;BME280_humidity;BME280_pressure;Samples;Min_cycle;Max_cycle;Signal;HPM_P1;HPM_P2
2021/03/20 00:01:27;;;;;;;6.62;6.03;;;;;;;-1.42;65.99;100898.13;123665;1105;104370;-85
2021/03/20 00:03:55;;;;;;;7.30;6.60;;;;;;;-1.45;65.65;100891.09;123808;1105;104287;-85
2021/03/20 00:06:25;;;;;;;6.05;5.40;;;;;;;-1.40;65.77;100902.56;123874;1105;104377;-84
2021/03/20 00:08:51;;;;;;;6.43;5.83;;;;;;;-1.39;65.90;100898.22;123696;1105;104236;-83
2021/03/20 00:11:20;;;;;;;6.90;6.05;;;;;;;-1.41;65.60;100897.30;123610;1105;104303;-87
2021/03/20 00:13:52;;;;;;;7.33;6.72;;;;;;;-1.46;65.14;100898.88;123691;1105;104431;-88
2021/03/20 00:16:19;;;;;;;8.10;7.27;;;;;;;-1.53;66.19;100908.26;123737;1105;105837;-86
2021/03/20 00:18:45;;;;;;;6.50;5.90;;;;;;;-1.48;65.70;100900.55;123689;1106;104258;-87
2021/03/20 00:21:12;;;;;;;7.72;6.92;;;;;;;-1.48;65.70;100904.06;123626;1106;104214;-84
2021/03/20 00:23:39;;;;;;;6.83;6.17;;;;;;;-1.53;65.56;100903.03;123599;1105;104230;-85
2021/03/20 00:26:06;;;;;;;6.83;6.22;;;;;;;-1.56;66.45;100895.98;123679;1105;104326;-84
2021/03/20 00:28:33;;;;;;;6.15;5.60;;;;;;;-1.52;65.60;100905.69;123092;1106;104280;-90
2021/03/20 00:31:03;;;;;;;7.33;6.70;;;;;;;-1.57;65.39;100902.04;123156;1105;105021;-84
2021/03/20 00:33:30;;;;;;;6.60;6.00;;;;;;;-1.55;66.01;100910.80;123113;1105;104441;-87
2021/03/20 00:35:58;;;;;;;7.13;6.37;;;;;;;-1.49;66.17;100902.28;122981;1105;104328;-83
2021/03/20 00:38:28;;;;;;;8.47;6.67;;;;;;;-1.48;65.70;100900.55;123022;1105;104364;-85
2021/03/20 00:40:55;;;;;;;7.07;5.60;;;;;;;-1.53;65.04;100903.03;122974;1105;104347;-88
2021/03/20 00:43:25;;;;;;;6.97;6.47;;;;;;;-1.59;65.26;100908.92;122850;1105;104371;-84
2021/03/20 00:45:53;;;;;;;8.78;7.40;;;;;;;-1.60;65.85;100901.95;123056;1106;104293;-87
2021/03/20 00:48:24;;;;;;;5.75;5.22;;;;;;;-1.67;65.54;100907.80;123291;1105;104851;-87
2021/03/20 00:50:51;;;;;;;6.10;5.70;;;;;;;-1.66;65.63;100906.09;123497;1105;105046;-86
2021/03/20 00:53:20;;;;;;;5.65;5.22;;;;;;;-1.66;66.10;100909.59;123363;1105;104184;-84
2021/03/20 00:55:47;;;;;;;9.48;5.78;;;;;;;-1.71;67.72;100908.55;123420;1105;104225;-88
2021/03/20 00:58:18;;;;;;;5.75;5.20;;;;;;;-1.67;67.71;100902.58;123421;1104;104419;-85
2021/03/20 01:00:44;;;;;;;8.75;5.78;;;;;;;-1.66;66.73;100909.59;123451;1105;104221;-83
2021/03/20 01:03:11;;;;;;;6.33;5.80;;;;;;;-1.70;66.23;100908.59;123312;1105;104176;-85
2021/03/20 01:05:38;;;;;;;6.20;5.60;;;;;;;-1.74;66.57;100911.08;123632;1105;104223;-85
2021/03/20 01:08:20;;;;;;;6.90;6.20;;;;;;;-1.72;66.19;100915.51;123333;1105;104331;-84
2021/03/20 01:11:02;;;;;;;6.20;5.73;;;;;;;-1.69;66.25;100918.20;123248;1109;104360;-84
2021/03/20 01:13:29;;;;;;;5.70;5.20;;;;;;;-1.66;66.55;100917.42;123099;1109;104492;-85
2021/03/20 01:15:55;;;;;;;6.73;6.07;;;;;;;-1.65;66.68;100913.98;123281;1108;104999;-84
2021/03/20 01:18:38;;;;;;;6.93;6.23;;;;;;;-1.58;66.24;100909.83;123385;1109;104578;-82
2021/03/20 01:21:05;;;;;;;7.03;6.40;;;;;;;-1.60;65.86;100908.89;123394;1109;104332;-83
2021/03/20 01:23:33;;;;;;;7.33;6.62;;;;;;;-1.57;65.97;100916.84;123318;1105;104354;-87
2021/03/20 01:26:00;;;;;;;9.03;6.00;;;;;;;-1.58;66.16;100913.32;123360;1105;105011;-85
2021/03/20 01:28:31;;;;;;;6.13;5.37;;;;;;;-1.59;65.87;100908.05;123445;1105;104412;-84
2021/03/20 01:31:00;;;;;;;7.83;6.40;;;;;;;-1.64;66.01;100918.37;123463;1105;104291;-83
2021/03/20 01:33:30;;;;;;;7.87;7.03;;;;;;;-1.60;66.73;100911.50;123364;1105;104290;-85
2021/03/20 01:35:58;;;;;;;8.00;6.40;;;;;;;-1.60;66.25;100912.41;123420;1105;104341;-83
2021/03/20 01:38:39;;;;;;;6.67;6.10;;;;;;;-1.64;65.94;100910.53;123200;1109;104395;-86
2021/03/20 01:41:15;;;;;;;7.12;6.47;;;;;;;-1.65;66.62;100915.69;123310;1109;104373;-84
2021/03/20 01:43:42;;;;;;;9.55;7.25;;;;;;;-1.66;66.41;100920.03;123440;1109;104428;-83
2021/03/20 01:46:38;;;;;;;7.25;6.60;;;;;;;-1.70;67.21;100924.27;122982;1112;104304;-83
2021/03/20 01:49:28;;;;;;;7.67;6.67;;;;;;;-1.60;66.53;100925.46;123026;1112;104294;-83
2021/03/20 01:52:12;;;;;;;7.75;6.95;;;;;;;-1.60;66.61;100922.85;122934;1112;104360;-83
2021/03/20 01:54:48;;;;;;;7.83;7.13;;;;;;;-1.60;66.28;100929.78;123155;1112;104897;-83
2021/03/20 01:57:19;;;;;;;8.83;6.75;;;;;;;-1.64;67.11;100920.08;123306;1109;104331;-83
2021/03/20 01:59:48;;;;;;;7.53;6.83;;;;;;;-1.61;66.84;100928.00;123644;1105;104252;-86
2021/03/20 02:02:15;;;;;;;7.55;6.62;;;;;;;-1.53;66.51;100924.80;123569;1105;104210;-82
2021/03/20 02:04:44;;;;;;;6.92;6.42;;;;;;;-1.42;66.90;100926.88;123426;1105;104255;-83
2021/03/20 02:07:30;;;;;;;7.80;7.13;;;;;;;-1.35;66.15;100927.12;123711;1105;104325;-85
2021/03/20 02:10:14;;;;;;;7.60;6.87;;;;;;;-1.47;66.10;100934.55;125114;1105;104293;-84
2021/03/20 02:13:06;;;;;;;7.23;6.50;;;;;;;-1.48;65.75;100932.80;123427;1105;104214;-82
2021/03/20 02:15:51;;;;;;;7.70;6.60;;;;;;;-1.43;66.47;100935.55;124560;1105;104207;-84
2021/03/20 02:18:35;;;;;;;9.23;8.00;;;;;;;-1.43;66.13;100933.80;123423;1105;104304;-84
2021/03/20 02:21:11;;;;;;;8.53;7.83;;;;;;;-1.39;66.18;100934.80;123339;1105;104779;-84
2021/03/20 02:24:15;;;;;;;7.00;6.30;;;;;;;-1.40;65.44;100943.47;123497;1105;104277;-84
2021/03/20 02:27:04;;;;;;;8.63;7.93;;;;;;;-1.47;65.16;100941.52;123229;1105;104253;-85
2021/03/20 02:29:56;;;;;;;8.00;7.40;;;;;;;-1.50;65.58;100947.52;123054;1106;104268;-83
2021/03/20 02:32:48;;;;;;;7.50;6.75;;;;;;;-1.42;65.45;100948.64;123382;1105;104373;-83
2021/03/20 02:35:37;;;;;;;8.23;7.42;;;;;;;-1.38;65.37;100949.64;123320;1106;104299;-84
2021/03/20 02:38:13;;;;;;;9.20;7.37;;;;;;;-1.37;65.14;100944.45;123335;1105;104389;-84
2021/03/20 02:41:23;;;;;;;8.60;6.80;;;;;;;-1.46;65.04;100951.13;123331;1105;105008;-84
2021/03/20 02:44:13;;;;;;;7.47;6.70;;;;;;;-1.47;64.84;100947.61;123467;1105;104206;-84
2021/03/20 02:47:02;;;;;;;6.70;6.15;;;;;;;-1.44;64.72;100952.05;123389;1105;104300;-84
2021/03/20 02:49:42;;;;;;;6.50;6.00;;;;;;;-1.40;64.93;100952.20;123473;1105;104255;-83
2021/03/20 02:52:35;;;;;;;7.67;6.03;;;;;;;-1.43;64.23;100952.09;123528;1105;104345;-83
2021/03/20 02:55:09;;;;;;;7.03;6.50;;;;;;;-1.49;64.54;100951.02;123432;1104;104300;-86
2021/03/20 02:58:00;;;;;;;7.65;7.00;;;;;;;-1.47;64.47;100963.28;123353;1105;104389;-84
2021/03/20 03:00:30;;;;;;;6.87;6.28;;;;;;;-1.40;64.60;100962.66;123363;1105;104222;-84
2021/03/20 03:02:58;;;;;;;8.53;7.60;;;;;;;-1.45;64.40;100966.84;123493;1105;104235;-84
2021/03/20 03:05:29;;;;;;;10.93;6.77;;;;;;;-1.44;65.00;100967.72;123573;1105;104306;-83
2021/03/20 03:08:00;;;;;;;7.85;6.60;;;;;;;-1.48;64.72;100973.69;123350;1106;104390;-85
2021/03/20 03:10:32;;;;;;;7.45;6.80;;;;;;;-1.44;64.74;100970.33;123419;1106;105018;-84
2021/03/20 03:13:02;;;;;;;8.13;7.43;;;;;;;-1.47;64.05;100984.19;123576;1105;104488;-84
2021/03/20 03:15:33;;;;;;;7.30;6.70;;;;;;;-1.55;63.86;100983.05;123481;1105;104286;-87
2021/03/20 03:18:09;;;;;;;6.97;6.37;;;;;;;-1.60;62.84;100988.14;123638;1105;104293;-84
2021/03/20 03:20:44;;;;;;;6.67;6.07;;;;;;;-1.67;63.41;100988.76;123678;1105;104342;-85
2021/03/20 03:23:25;;;;;;;7.37;6.78;;;;;;;-1.69;63.38;100987.84;123442;1105;104287;-84
2021/03/20 03:26:06;;;;;;;7.08;6.47;;;;;;;-1.65;63.18;100988.80;123492;1105;104245;-86
2021/03/20 03:28:33;;;;;;;10.53;6.87;;;;;;;-1.60;64.15;100988.14;123696;1105;104229;-93
2021/03/20 03:31:25;;;;;;;8.83;7.35;;;;;;;-1.57;63.07;100992.58;123399;1109;104332;-86
2021/03/20 03:34:00;;;;;;;7.87;6.55;;;;;;;-1.53;62.98;100994.45;123336;1109;104610;-84
2021/03/20 03:37:03;;;;;;;11.97;6.83;;;;;;;-1.52;63.17;100997.11;123447;1109;104415;-85
2021/03/20 03:39:40;;;;;;;8.75;5.75;;;;;;;-1.54;62.60;100997.89;123397;1109;104388;-84
2021/03/20 03:42:10;;;;;;;8.43;7.00;;;;;;;-1.53;62.59;101004.90;123269;1109;104460;-82
2021/03/20 03:44:38;;;;;;;6.50;5.90;;;;;;;-1.55;62.90;101002.21;123296;1109;104821;-84
2021/03/20 03:47:25;;;;;;;7.35;6.60;;;;;;;-1.50;63.04;101009.34;123302;1108;104460;-84
2021/03/20 03:50:11;;;;;;;6.80;6.10;;;;;;;-1.60;62.50;101011.65;123215;1109;104207;-89
2021/03/20 03:52:52;;;;;;;7.53;6.80;;;;;;;-1.59;62.87;101015.14;123307;1109;104871;-84
2021/03/20 03:55:20;;;;;;;7.30;6.60;;;;;;;-1.65;62.47;101005.38;123104;1109;104578;-84
2021/03/20 03:58:05;;;;;;;7.20;6.55;;;;;;;-1.70;63.03;101013.05;123188;1109;104532;-83
2021/03/20 04:00:48;;;;;;;7.40;6.70;;;;;;;-1.70;63.12;101010.44;123132;1109;104268;-85
2021/03/20 04:03:54;;;;;;;7.67;6.80;;;;;;;-1.61;62.64;101022.02;123519;1109;104245;-82
2021/03/20 04:06:35;;;;;;;7.47;6.53;;;;;;;-1.59;63.42;101022.97;123159;1112;104517;-83
2021/03/20 04:09:33;;;;;;;8.08;6.28;;;;;;;-1.66;62.43;101019.27;123441;1106;104229;-84
2021/03/20 04:12:08;;;;;;;9.70;7.43;;;;;;;-1.80;62.37;101016.20;123631;1105;104878;-85
2021/03/20 04:15:02;;;;;;;7.27;6.70;;;;;;;-1.78;62.63;101016.25;123292;1105;104396;-83
2021/03/20 04:18:13;;;;;;;7.47;6.78;;;;;;;-1.85;62.93;101021.26;123574;1105;104402;-86
2021/03/20 04:21:23;;;;;;;8.13;6.47;;;;;;;-1.87;63.30;101027.25;123536;1105;104250;-82
2021/03/20 04:24:14;;;;;;;8.00;7.30;;;;;;;-1.82;63.11;101020.47;123401;1106;104316;-84
2021/03/20 04:27:08;;;;;;;7.08;6.47;;;;;;;-1.79;62.63;101028.40;123298;1109;104437;-88
2021/03/20 04:30:27;;;;;;;7.20;6.60;;;;;;;-1.77;63.10;101037.19;122831;1111;104992;-84
2021/03/20 04:33:02;;;;;;;6.65;6.05;;;;;;;-1.75;62.63;101034.63;122931;1112;104408;-84
2021/03/20 04:35:33;;;;;;;7.03;6.40;;;;;;;-1.71;63.01;101037.37;123264;1112;104366;-87
2021/03/20 04:38:01;;;;;;;9.63;8.43;;;;;;;-1.67;62.70;101040.98;122940;1112;104453;-82
2021/03/20 04:41:04;;;;;;;7.83;7.03;;;;;;;-1.64;62.85;101045.43;123052;1112;104951;-83
2021/03/20 04:43:33;;;;;;;11.57;7.20;;;;;;;-1.75;62.62;101043.33;123034;1112;104373;-84
2021/03/20 04:46:18;;;;;;;8.80;7.23;;;;;;;-1.71;62.94;101042.59;123001;1112;104395;-84
2021/03/20 04:48:55;;;;;;;7.47;6.80;;;;;;;-1.63;62.93;101041.98;123060;1112;104383;-84
2021/03/20 04:51:24;;;;;;;8.53;6.07;;;;;;;-1.62;62.05;101041.16;123074;1112;105108;-83
2021/03/20 04:53:56;;;;;;;7.40;6.65;;;;;;;-1.62;62.08;101049.88;123162;1112;104466;-86
2021/03/20 04:56:23;;;;;;;7.43;6.70;;;;;;;-1.69;62.37;101054.00;123187;1111;104242;-84
2021/03/20 04:59:09;;;;;;;7.50;6.80;;;;;;;-1.61;62.74;101053.36;123045;1112;104453;-83
2021/03/20 05:01:54;;;;;;;7.50;6.95;;;;;;;-1.59;62.26;101057.80;123098;1112;105187;-84
2021/03/20 05:04:30;;;;;;;7.40;6.70;;;;;;;-1.55;61.71;101054.45;123224;1109;104408;-84
2021/03/20 05:06:59;;;;;;;6.65;6.05;;;;;;;-1.52;62.04;101065.03;123500;1106;104618;-84
2021/03/20 05:09:29;;;;;;;7.72;6.90;;;;;;;-1.53;60.82;101065.85;123635;1105;104277;-82
2021/03/20 05:12:26;;;;;;;8.83;8.00;;;;;;;-1.56;61.28;101068.38;123427;1105;104397;-87
2021/03/20 05:15:25;;;;;;;8.65;7.67;;;;;;;-1.50;61.25;101064.20;123365;1109;104402;-86
2021/03/20 05:18:06;;;;;;;8.30;7.55;;;;;;;-1.45;61.06;101071.34;123344;1109;104335;-81
2021/03/20 05:20:34;;;;;;;8.53;7.37;;;;;;;-1.54;60.47;101073.64;123397;1109;104575;-88
2021/03/20 05:23:00;;;;;;;8.30;6.53;;;;;;;-1.67;60.64;101074.94;123387;1108;104507;-85
2021/03/20 05:25:27;;;;;;;8.10;7.20;;;;;;;-1.71;60.41;101083.50;123151;1109;104444;-83
2021/03/20 05:27:54;;;;;;;8.20;7.40;;;;;;;-1.71;60.93;101080.89;123048;1108;104399;-85
2021/03/20 05:30:21;;;;;;;8.83;7.97;;;;;;;-1.62;60.10;101081.21;122805;1108;104389;-83
2021/03/20 05:32:48;;;;;;;11.87;7.83;;;;;;;-1.61;60.08;101082.09;122789;1108;104750;-84
2021/03/20 05:35:24;;;;;;;9.30;7.20;;;;;;;-1.54;61.04;101084.09;122900;1109;104370;-87
2021/03/20 05:37:51;;;;;;;13.05;8.15;;;;;;;-1.53;60.66;101083.27;122900;1109;104319;-83
2021/03/20 05:40:26;;;;;;;7.60;6.77;;;;;;;-1.46;60.70;101089.58;122977;1109;104274;-83
2021/03/20 05:43:24;;;;;;;8.38;7.22;;;;;;;-1.40;59.73;101081.93;123021;1108;104364;-82
2021/03/20 05:45:59;;;;;;;9.63;6.95;;;;;;;-1.42;59.71;101092.34;124654;1109;104411;-86
2021/03/20 05:49:11;;;;;;;9.40;6.70;;;;;;;-1.42;59.42;101101.91;125173;1109;104402;-83
2021/03/20 05:52:17;;;;;;;6.75;6.15;;;;;;;-1.47;58.34;101096.52;125138;1108;103964;-84
2021/03/20 05:55:05;;;;;;;6.92;6.30;;;;;;;-1.45;59.34;101102.69;125755;1105;102188;-86
2021/03/20 05:57:59;;;;;;;7.83;7.03;;;;;;;-1.40;58.86;101101.13;125900;1105;103317;-86
2021/03/20 06:00:29;;;;;;;8.70;7.83;;;;;;;-1.40;58.31;101101.13;123637;1105;104313;-86
2021/03/20 06:03:17;;;;;;;8.20;7.10;;;;;;;-1.37;58.45;101098.61;123231;1105;104306;-83
2021/03/20 06:05:51;;;;;;;8.35;7.30;;;;;;;-1.28;58.89;101111.11;123234;1105;104421;-84
2021/03/20 06:08:34;;;;;;;11.15;7.58;;;;;;;-1.20;58.80;101111.33;123175;1105;104335;-83
2021/03/20 06:11:38;;;;;;;7.37;6.63;;;;;;;-1.25;58.17;101118.16;123166;1105;104302;-84
2021/03/20 06:14:34;;;;;;;7.93;7.17;;;;;;;-1.24;58.53;101114.69;122953;1109;104360;-81
2021/03/20 06:17:14;;;;;;;11.93;7.37;;;;;;;-1.22;57.90;101116.52;123075;1109;104329;-82
2021/03/20 06:20:07;;;;;;;8.43;7.63;;;;;;;-1.20;58.27;101111.33;123114;1105;104300;-85
2021/03/20 06:23:11;;;;;;;9.58;8.30;;;;;;;-1.24;58.18;101112.98;122970;1106;104692;-89
2021/03/20 06:26:02;;;;;;;8.30;7.60;;;;;;;-1.23;57.44;101112.12;123108;1105;104443;-86
2021/03/20 06:28:35;;;;;;;14.80;9.97;;;;;;;-1.11;58.28;101118.61;123646;1106;104479;-84
2021/03/20 06:31:22;;;;;;;9.63;8.63;;;;;;;-1.03;57.59;101125.88;123691;1106;104300;-84
2021/03/20 06:34:15;;;;;;;13.07;9.73;;;;;;;-0.98;57.57;101120.78;123747;1105;104319;-84
2021/03/20 06:36:55;;;;;;;12.80;9.70;;;;;;;-0.97;56.98;101132.11;123779;1105;104309;-87
2021/03/20 06:39:28;;;;;;;10.77;8.50;;;;;;;-0.95;56.82;101130.45;123818;1105;104303;-83
2021/03/20 06:41:58;;;;;;;10.63;9.53;;;;;;;-0.94;57.05;101133.11;123704;1105;105149;-83
2021/03/20 06:44:42;;;;;;;8.60;7.80;;;;;;;-0.91;56.35;101132.33;123431;1109;104258;-84
2021/03/20 06:47:27;;;;;;;10.18;7.70;;;;;;;-0.88;56.67;101133.32;123552;1109;104549;-84
2021/03/20 06:50:18;;;;;;;9.57;8.70;;;;;;;-0.81;56.37;101130.88;123406;1109;105172;-83
2021/03/20 06:53:08;;;;;;;9.80;8.40;;;;;;;-0.66;57.02;101139.22;123391;1109;104669;-87
2021/03/20 06:55:57;;;;;;;9.43;8.45;;;;;;;-0.59;56.62;101133.33;123575;1105;104975;-84
2021/03/20 06:58:26;;;;;;;14.30;9.23;;;;;;;-0.59;55.75;101138.56;123727;1105;104290;-82
2021/03/20 07:00:53;;;;;;;8.08;7.20;;;;;;;-0.65;55.70;101143.62;123669;1105;104402;-85
2021/03/20 07:03:42;;;;;;;13.70;7.87;;;;;;;-0.57;55.73;101149.10;123534;1106;104236;-85
2021/03/20 07:06:18;;;;;;;8.85;7.95;;;;;;;-0.51;55.30;101141.42;123685;1106;104345;-83
2021/03/20 07:08:48;;;;;;;10.90;8.80;;;;;;;-0.44;55.35;101147.73;123576;1106;104399;-85
2021/03/20 07:11:30;;;;;;;13.20;9.53;;;;;;;-0.37;55.56;101149.71;123742;1105;104334;-85
2021/03/20 07:14:35;;;;;;;9.35;8.20;;;;;;;-0.33;54.92;101146.34;123705;1105;104189;-84
2021/03/20 07:17:05;;;;;;;7.17;6.47;;;;;;;-0.27;55.44;101150.87;123663;1105;104606;-85
2021/03/20 07:19:34;;;;;;;11.70;8.45;;;;;;;-0.29;53.97;101149.92;123979;1105;104395;-84
2021/03/20 07:22:00;;;;;;;11.47;7.93;;;;;;;-0.31;54.41;101149.88;123726;1105;104460;-83
2021/03/20 07:24:40;;;;;;;13.35;8.40;;;;;;;-0.30;54.01;101153.41;123620;1105;104225;-84
2021/03/20 07:27:31;;;;;;;11.55;7.30;;;;;;;-0.28;53.73;101157.84;123676;1105;104453;-85
2021/03/20 07:30:05;;;;;;;12.13;8.70;;;;;;;-0.24;54.53;101164.95;123546;1105;104284;-84
2021/03/20 07:32:39;;;;;;;11.10;8.93;;;;;;;-0.15;54.51;101169.55;123636;1105;104309;-85
2021/03/20 07:35:29;;;;;;;11.20;9.83;;;;;;;-0.10;54.08;101170.58;123762;1105;104367;-84
2021/03/20 07:38:12;;;;;;;12.05;8.80;;;;;;;0.03;55.36;101170.93;123756;1106;104407;-84
2021/03/20 07:40:39;;;;;;;7.63;6.57;;;;;;;0.15;53.40;101171.31;123769;1105;104713;-83
2021/03/20 07:43:11;;;;;;;16.97;11.87;;;;;;;0.18;53.76;101174.01;123672;1105;104226;-83
2021/03/20 07:45:38;;;;;;;15.03;11.12;;;;;;;0.28;53.44;101177.77;123789;1105;104460;-84
2021/03/20 07:48:19;;;;;;;9.50;8.60;;;;;;;0.30;53.33;101176.96;123653;1105;104271;-84
2021/03/20 07:50:47;;;;;;;7.50;6.80;;;;;;;0.40;53.79;101170.27;123774;1105;104217;-84
2021/03/20 07:53:21;;;;;;;10.05;7.55;;;;;;;0.45;52.74;101175.62;123656;1107;104392;-83
2021/03/20 07:56:07;;;;;;;11.97;10.37;;;;;;;0.42;52.24;101178.17;123612;1104;104756;-82
2021/03/20 07:58:48;;;;;;;11.67;8.47;;;;;;;0.40;51.56;101183.38;123366;1106;104444;-85
2021/03/20 08:01:25;;;;;;;11.00;9.20;;;;;;;0.43;51.53;101179.95;123424;1105;104456;-83
2021/03/20 08:03:57;;;;;;;9.68;8.80;;;;;;;0.52;52.21;101185.45;123148;1106;104309;-83
2021/03/20 08:06:26;;;;;;;8.50;7.47;;;;;;;0.70;51.86;101189.41;123306;1105;104162;-83
2021/03/20 08:09:12;;;;;;;7.87;6.87;;;;;;;0.72;51.52;101187.70;123287;1105;104232;-84
2021/03/20 08:11:41;;;;;;;9.80;8.17;;;;;;;0.72;51.32;101199.09;123577;1105;104383;-83
2021/03/20 08:14:50;;;;;;;8.43;7.30;;;;;;;0.76;51.53;101190.45;123342;1105;104274;-81
2021/03/20 08:17:18;;;;;;;7.10;6.40;;;;;;;0.95;51.78;101201.44;123799;1105;104370;-85
2021/03/20 08:19:47;;;;;;;7.97;7.27;;;;;;;1.12;51.27;101189.63;123751;1105;104360;-82
2021/03/20 08:22:30;;;;;;;15.15;9.50;;;;;;;1.31;49.52;101190.95;123673;1106;104399;-82
2021/03/20 08:25:34;;;;;;;8.60;6.33;;;;;;;1.42;50.01;101193.84;123614;1105;104226;-83
2021/03/20 08:28:46;;;;;;;11.83;7.35;;;;;;;1.53;49.12;101198.47;123438;1105;104993;-80
2021/03/20 08:31:40;;;;;;;7.47;5.90;;;;;;;1.73;49.11;101201.55;123322;1105;104785;-83
2021/03/20 08:34:36;;;;;;;10.10;6.50;;;;;;;1.69;46.03;101199.70;123566;1105;104220;-80
2021/03/20 08:37:39;;;;;;;14.33;9.20;;;;;;;1.67;47.63;101208.43;123263;1109;104374;-83
2021/03/20 08:40:39;;;;;;;10.30;7.37;;;;;;;1.80;48.11;101209.61;123245;1109;104265;-81
2021/03/20 08:43:15;;;;;;;7.28;6.50;;;;;;;1.80;46.70;101193.85;123176;1109;104443;-85
2021/03/20 08:46:19;;;;;;;8.27;5.70;;;;;;;1.99;45.33;101210.02;123277;1107;104975;-82
2021/03/20 08:49:10;;;;;;;7.23;6.23;;;;;;;2.04;46.23;101205.76;123457;1109;104414;-83
2021/03/20 08:51:56;;;;;;;7.00;5.27;;;;;;;2.16;45.66;101213.89;123466;1109;104632;-82
2021/03/20 08:55:02;;;;;;;7.97;5.50;;;;;;;2.34;45.36;101207.24;123273;1109;104258;-81
2021/03/20 08:57:50;;;;;;;6.90;6.20;;;;;;;2.52;44.49;101206.74;123318;1109;104571;-78
2021/03/20 09:00:29;;;;;;;5.12;4.70;;;;;;;2.72;43.75;101208.84;123076;1109;104354;-82
2021/03/20 09:03:27;;;;;;;7.03;5.10;;;;;;;2.92;43.71;101212.75;123044;1109;105379;-79
2021/03/20 09:06:17;;;;;;;7.65;5.37;;;;;;;3.12;42.55;101206.93;122979;1109;104364;-79
2021/03/20 09:09:30;;;;;;;6.45;5.62;;;;;;;3.26;43.36;101212.45;122987;1109;104463;-80
2021/03/20 09:12:45;;;;;;;7.28;5.45;;;;;;;3.45;43.09;101214.53;122949;1109;104480;-80
2021/03/20 09:15:29;;;;;;;8.63;5.95;;;;;;;3.61;41.89;101213.03;123003;1105;105079;-79
2021/03/20 09:18:13;;;;;;;10.95;7.00;;;;;;;3.64;40.66;101218.33;122929;1109;105053;-79
2021/03/20 09:20:50;;;;;;;6.12;5.50;;;;;;;3.93;40.97;101220.52;123060;1109;104312;-79
2021/03/20 09:23:26;;;;;;;8.93;7.37;;;;;;;4.45;40.77;101219.41;123023;1109;104335;-80
2021/03/20 09:25:55;;;;;;;6.67;5.47;;;;;;;4.95;37.64;101218.22;122943;1108;104376;-81
2021/03/20 09:28:30;;;;;;;9.63;6.67;;;;;;;4.82;38.50;101217.20;123253;1109;104386;-80
2021/03/20 09:31:29;;;;;;;6.10;5.50;;;;;;;4.89;37.77;101224.30;123194;1109;104562;-79
2021/03/20 09:34:00;;;;;;;8.97;5.80;;;;;;;6.08;37.32;101214.70;122895;1109;104543;-78
2021/03/20 09:36:33;;;;;;;9.57;5.33;;;;;;;6.26;36.37;101220.96;122981;1109;104491;-81
2021/03/20 09:39:02;;;;;;;10.30;6.07;;;;;;;6.31;36.83;101227.16;122948;1109;104377;-79
2021/03/20 09:41:29;;;;;;;5.13;4.63;;;;;;;6.35;36.89;101223.65;123070;1109;104258;-80
2021/03/20 09:43:55;;;;;;;9.45;7.33;;;;;;;6.56;35.66;101233.44;122969;1109;105047;-82
2021/03/20 09:46:45;;;;;;;9.00;7.03;;;;;;;6.45;34.48;101232.50;122906;1109;104950;-80
2021/03/20 09:49:15;;;;;;;11.50;7.65;;;;;;;6.36;34.49;101231.59;122968;1109;104341;-80
2021/03/20 09:51:48;;;;;;;7.30;5.78;;;;;;;7.09;33.42;101226.52;122859;1109;104690;-83
2021/03/20 09:54:27;;;;;;;4.43;4.00;;;;;;;8.89;31.64;101226.13;122797;1109;104312;-82
2021/03/20 09:59:42;;;;;;;9.08;5.60;;;;;;;11.13;27.04;101216.68;123095;1105;104345;-81
2021/03/20 10:02:10;;;;;;;4.75;4.15;;;;;;;11.41;29.25;101216.23;123186;1105;104438;-81
2021/03/20 10:04:56;;;;;;;5.77;4.67;;;;;;;10.90;26.42;101226.80;123151;1105;104299;-81
2021/03/20 10:07:26;;;;;;;7.43;6.13;;;;;;;10.35;26.14;101226.63;123013;1105;104882;-79
2021/03/20 10:10:16;;;;;;;4.67;3.98;;;;;;;9.28;26.98;101224.97;123212;1105;104488;-85
2021/03/20 10:12:47;;;;;;;6.15;4.03;;;;;;;9.49;26.55;101231.90;123170;1105;104479;-80
2021/03/20 10:15:34;;;;;;;5.80;5.00;;;;;;;9.99;27.22;101231.43;123086;1105;104168;-80
2021/03/20 10:18:20;;;;;;;7.67;5.58;;;;;;;10.46;27.75;101238.04;122852;1109;104665;-82
2021/03/20 10:21:03;;;;;;;5.63;3.73;;;;;;;12.12;25.87;101231.00;122941;1109;104565;-82
2021/03/20 10:24:03;;;;;;;6.07;4.50;;;;;;;12.34;25.55;101223.45;122638;1109;104360;-80
2021/03/20 10:26:38;;;;;;;5.20;3.73;;;;;;;13.51;23.70;101219.05;123212;1109;104495;-81
2021/03/20 10:29:21;;;;;;;4.62;3.08;;;;;;;13.92;22.36;101216.22;122701;1106;104318;-81
2021/03/20 10:32:17;;;;;;;6.20;3.27;;;;;;;14.50;21.66;101219.03;123165;1106;104373;-81
2021/03/20 10:34:52;;;;;;;4.70;3.40;;;;;;;15.15;22.68;101219.76;123039;1105;105008;-81
2021/03/20 10:37:20;;;;;;;4.03;3.03;;;;;;;14.56;21.59;101213.50;123101;1105;104390;-80
2021/03/20 10:40:19;;;;;;;5.20;3.33;;;;;;;14.37;21.80;101215.84;123340;1105;104252;-80
2021/03/20 10:42:48;;;;;;;5.42;3.55;;;;;;;15.70;20.29;101211.66;123129;1106;104299;-81
2021/03/20 10:45:39;;;;;;;4.42;3.00;;;;;;;14.04;21.65;101216.73;123252;1105;104325;-81
2021/03/20 10:48:27;;;;;;;3.93;3.53;;;;;;;14.21;20.29;101210.91;123061;1106;104291;-81
2021/03/20 10:51:09;;;;;;;4.00;2.90;;;;;;;15.78;20.34;101211.39;122717;1108;104379;-82
2021/03/20 10:53:44;;;;;;;4.07;2.43;;;;;;;14.63;20.74;101209.72;122701;1109;104703;-84
2021/03/20 10:56:38;;;;;;;4.73;2.93;;;;;;;13.11;22.36;101225.34;122758;1109;104350;-81
2021/03/20 10:59:22;;;;;;;4.90;2.70;;;;;;;11.81;22.98;101225.31;122776;1109;104508;-82
2021/03/20 11:01:49;;;;;;;4.95;3.65;;;;;;;10.64;23.99;101233.37;122881;1108;104418;-87
2021/03/20 11:04:34;;;;;;;3.97;2.90;;;;;;;9.69;25.01;101234.38;122725;1108;104341;-82
2021/03/20 11:07:02;;;;;;;6.25;3.02;;;;;;;8.60;25.75;101236.02;122924;1109;104475;-80
2021/03/20 11:09:31;;;;;;;4.22;3.80;;;;;;;7.86;26.48;101223.85;122953;1109;104319;-81
2021/03/20 11:12:04;;;;;;;6.85;5.67;;;;;;;7.34;28.31;101222.12;122773;1109;104338;-81
2021/03/20 11:14:31;;;;;;;8.48;6.05;;;;;;;7.11;28.39;101230.03;122824;1109;104363;-79
2021/03/20 11:17:19;;;;;;;3.70;3.40;;;;;;;6.68;28.77;101228.18;123006;1109;104869;-81
2021/03/20 11:19:48;;;;;;;8.60;3.95;;;;;;;6.31;29.63;101220.09;122921;1108;104976;-80
2021/03/20 11:22:18;;;;;;;7.10;4.50;;;;;;;6.09;30.09;101224.42;122885;1109;104421;-80
2021/03/20 11:24:52;;;;;;;7.00;3.70;;;;;;;5.93;29.97;101228.70;122991;1109;104409;-80
2021/03/20 11:27:20;;;;;;;5.10;4.47;;;;;;;5.74;30.12;101219.73;123006;1109;104450;-81
2021/03/20 11:29:49;;;;;;;3.87;3.05;;;;;;;5.54;30.31;101209.03;123157;1105;104492;-80
2021/03/20 11:32:27;;;;;;;5.33;4.53;;;;;;;5.33;30.11;101213.29;123251;1106;104226;-80
2021/03/20 11:35:20;;;;;;;6.73;4.07;;;;;;;4.99;30.91;101222.66;123439;1105;104236;-83
2021/03/20 11:37:47;;;;;;;6.75;3.95;;;;;;;4.74;31.65;101218.88;123113;1105;104338;-79
2021/03/20 11:40:31;;;;;;;6.25;4.62;;;;;;;4.47;31.96;101222.97;123272;1105;105038;-80
2021/03/20 11:43:04;;;;;;;5.03;4.53;;;;;;;4.30;31.97;101220.98;123262;1105;104421;-80
2021/03/20 11:45:37;;;;;;;4.42;3.90;;;;;;;4.12;32.57;101220.74;123325;1105;105845;-80
2021/03/20 11:48:25;;;;;;;5.97;4.17;;;;;;;3.96;32.47;101214.41;123342;1105;104310;-80
2021/03/20 11:50:55;;;;;;;4.70;3.87;;;;;;;3.89;32.39;101215.17;123360;1105;104695;-83
2021/03/20 11:53:33;;;;;;;4.58;4.10;;;;;;;3.75;32.67;101215.85;123322;1105;104239;-82
2021/03/20 11:56:13;;;;;;;7.05;5.75;;;;;;;3.80;33.52;101215.94;123097;1105;104402;-80
2021/03/20 11:58:41;;;;;;;8.45;6.47;;;;;;;3.73;33.61;101220.20;123354;1105;104999;-80
2021/03/20 12:01:33;;;;;;;8.27;4.50;;;;;;;3.72;33.80;101217.55;123622;1105;104281;-82
2021/03/20 12:04:21;;;;;;;6.60;4.13;;;;;;;3.64;33.28;101210.43;123262;1105;104310;-79
2021/03/20 12:07:33;;;;;;;8.55;7.55;;;;;;;3.57;33.39;101208.55;123496;1105;104328;-81
2021/03/20 12:10:15;;;;;;;9.05;7.70;;;;;;;3.50;33.16;101202.30;123016;1109;104823;-82